Davenport, WA

5:40 PM PDT on October 25, 2014 (GMT -0700)
Davenport, WA | Change Station
CLOSE
Current Station
Personal Weather Station
Location: Davenport, WA
Elevation: 2375 ft
Nearby Weather Stations
Active Advisory: Wind Advisory

Elev 2375 ft 47.65 °N, 118.15 °W | Updated 10 minutes ago

Rain
Rain
57.0 °F
Feels Like 57.0 °F
N
0.0
Wind Variable Wind from South

Today
High -- | Low -- °F
--% Chance of Precip.
Yesterday
High -- | Low -- °F
Precip. -- in
7:26 AM 5:46 PM
Waxing Crescent, 5% visible
Pressure 29.53 in
Visibility 10.0 miles
Clouds Few 8000 ft
Mostly Cloudy 13000 ft
Dew Point 48 °F
Humidity 72%
Rainfall 0.00 in
Snow Depth Not available.
UV 0 out of 12
Pollen 1.50 out of 12
PM2.5 Moderate
Flu Activity Sporadic
METAR KSKA 252358Z AUTO 18006KT 10SM FEW080 BKN130 16/07 A2952 RMK AO2 SLP998 60000 T01630071 10204 20112 402040058 55012

More Conditions Fewer Conditions

Pressure 29.53 in
Visibility 10.0 miles
Clouds Few 8000 ft
Mostly Cloudy 13000 ft
Dew Point 48 °F
Humidity 72%
Rainfall 0.00 in
Snow Depth Not available.
UV 0 out of 12
Pollen 1.50 out of 12
PM2.5 Moderate
Flu Activity Sporadic
METAR KSKA 252358Z AUTO 18006KT 10SM FEW080 BKN130 16/07 A2952 RMK AO2 SLP998 60000 T01630071 10204 20112 402040058 55012

More Conditions Fewer Conditions

10-Day Weather Forecast

Almanac

Astronomy

Oct. 25, 2014 Rise Set
Actual Time 7:26 AM PDT 5:46 PM PDT
Civil Twilight 6:54 AM PDT 6:17 PM PDT
Nautical Twilight 6:18 AM PDT 6:53 PM PDT
Astronomical Twilight 5:42 AM PDT 7:29 PM PDT
Moon 9:15 AM PDT (10/25) 7:06 PM PDT (10/25)
Length of Visible Light 11h 23m
Length of Day
10h 19m
Tomorrow will be 3m 12s shorter.
Waxing Crescent, 5% of the Moon is Illuminated
Today
Waxing Crescent
Oct 30
First Quarter
Nov 6
Full
Nov 14
Last Quarter
Nov 22
New

Today's Extremes

State Highs State Lows

Community

WunderPhotos

Upload Photos

1,765,052 photos uploaded!

Nearby

Air Quality

  Air Quality AQ Index Pollutant
Yesterday Good
PM10
Current Moderate
PM2.5
Saturday Good
PM10
Saturday Good
CO
Sunday Good
PM10
Sunday Good
CO
Monday Good
PM10
Monday Good
CO

Snow Depth

Station Depth Elevation
Quartz Peak 1 in 4700 ft
Moses Mountain 0 in 5300 ft
Sentinel Butte 0 in 4920 ft
Bunchgrass Meadow 0 in 5000 ft
Sourdough Gulch 0 in 4000 ft

Earthquake Activity

City Distance Mag. Time & Date
No recent earthquake activity has been reported nearby.
Minimum magnitude displayed is 2.5.

Coastal Water Temperatures

Place Temperature
No Stations Reporting

Nearby Weather Stations